createdAt,value
2023-01-23T00:00:11.123Z,19.90
2023-01-23T00:03:12.763Z,19.83
2023-01-23T00:06:16.192Z,20.17
2023-01-23T00:09:17.909Z,21.33
2023-01-23T00:12:19.597Z,20.55
2023-01-23T00:15:21.265Z,19.37
2023-01-23T00:18:22.935Z,19.55
2023-01-23T00:21:28.104Z,17.20
2023-01-23T00:24:29.743Z,15.20
2023-01-23T00:27:31.717Z,14.93
2023-01-23T00:30:34.022Z,15.15
2023-01-23T00:33:35.818Z,16.30
2023-01-23T00:36:39.582Z,15.32
2023-01-23T00:39:41.200Z,14.93
2023-01-23T00:42:42.816Z,13.65
2023-01-23T00:45:44.461Z,13.95
2023-01-23T00:48:46.177Z,13.15
2023-01-23T00:51:47.917Z,14.87
2023-01-23T00:54:49.585Z,13.77
2023-01-23T00:57:51.338Z,13.07
2023-01-23T01:00:53.066Z,14.15
2023-01-23T01:03:54.903Z,13.60
2023-01-23T01:06:56.608Z,13.32
2023-01-23T01:09:58.293Z,14.07
2023-01-23T01:13:02.187Z,12.18
2023-01-23T01:16:04.227Z,13.15
2023-01-23T01:19:05.944Z,12.88
2023-01-23T01:22:07.637Z,13.32
2023-01-23T01:25:09.773Z,13.10
2023-01-23T01:28:11.670Z,13.50
2023-01-23T01:31:14.875Z,14.00
2023-01-23T01:34:16.670Z,13.20
2023-01-23T01:37:18.421Z,13.07
2023-01-23T01:40:26.140Z,13.32
2023-01-23T01:43:28.405Z,13.20
2023-01-23T01:46:31.092Z,13.05
2023-01-23T01:49:35.357Z,12.98
2023-01-23T01:52:37.052Z,12.45
2023-01-23T01:55:39.989Z,12.30
2023-01-23T01:58:45.108Z,11.80
2023-01-23T02:01:50.120Z,11.20
2023-01-23T02:04:58.189Z,11.23
2023-01-23T02:08:05.678Z,11.20
2023-01-23T02:14:10.414Z,10.93
2023-01-23T02:17:12.507Z,11.40
2023-01-23T02:20:28.525Z,10.52
2023-01-23T02:24:00.467Z,9.98
2023-01-23T02:27:03.254Z,9.10
2023-01-23T02:30:07.908Z,10.18
2023-01-23T02:33:24.704Z,9.73
2023-01-23T02:36:29.504Z,9.38
2023-01-23T02:39:31.715Z,9.75
2023-01-23T02:42:34.439Z,9.18
2023-01-23T02:45:37.017Z,10.50
2023-01-23T02:48:43.967Z,9.93
2023-01-23T02:51:45.850Z,9.95
2023-01-23T02:54:47.713Z,8.73
2023-01-23T02:57:49.430Z,8.73
2023-01-23T03:00:51.090Z,8.85
2023-01-23T03:03:53.596Z,8.85
2023-01-23T03:06:55.273Z,8.85
2023-01-23T03:09:56.888Z,9.20
2023-01-23T03:13:07.362Z,8.45
2023-01-23T03:16:09.752Z,9.75
2023-01-23T03:19:11.414Z,10.32
2023-01-23T03:22:13.104Z,8.25
2023-01-23T03:25:14.866Z,9.13
2023-01-23T03:28:35.252Z,8.50
2023-01-23T03:31:37.024Z,6.90
2023-01-23T03:34:39.586Z,7.37
2023-01-23T03:37:41.312Z,8.43
2023-01-23T03:41:01.460Z,7.82
2023-01-23T03:44:03.196Z,8.38
2023-01-23T03:47:05.572Z,7.12
2023-01-23T03:50:08.112Z,7.50
2023-01-23T03:53:09.810Z,6.45
2023-01-23T03:56:11.502Z,9.05
2023-01-23T03:59:13.170Z,7.57
2023-01-23T04:02:14.890Z,8.40
2023-01-23T04:05:16.744Z,8.20
2023-01-23T04:08:18.398Z,7.90
2023-01-23T04:11:20.612Z,8.68
2023-01-23T04:14:23.379Z,7.70
2023-01-23T04:17:25.066Z,8.95
2023-01-23T04:20:26.731Z,7.78
2023-01-23T04:23:28.468Z,8.40
2023-01-23T04:26:30.183Z,9.13
2023-01-23T04:29:31.857Z,8.35
2023-01-23T04:32:33.538Z,8.48
2023-01-23T04:35:35.664Z,7.57
2023-01-23T04:38:37.413Z,7.68
2023-01-23T04:41:39.041Z,8.15
2023-01-23T04:44:40.707Z,7.47
2023-01-23T04:47:42.335Z,7.20
2023-01-23T04:50:44.489Z,7.55
2023-01-23T04:53:46.155Z,7.43
2023-01-23T04:56:49.640Z,6.57
2023-01-23T04:59:51.425Z,7.87
2023-01-23T05:02:53.075Z,6.28
2023-01-23T05:05:54.749Z,7.32
2023-01-23T05:08:56.458Z,6.70
2023-01-23T05:11:58.092Z,6.55
2023-01-23T05:14:59.817Z,6.95
2023-01-23T05:18:01.553Z,6.85
2023-01-23T05:21:03.383Z,7.20
2023-01-23T05:24:05.453Z,7.10
2023-01-23T05:27:07.116Z,9.27
2023-01-23T05:30:09.443Z,7.43
2023-01-23T05:33:11.139Z,7.55
2023-01-23T05:36:12.840Z,8.48
2023-01-23T05:39:14.628Z,8.90
2023-01-23T05:42:16.284Z,7.65
2023-01-23T05:45:18.249Z,8.27
2023-01-23T05:48:19.916Z,8.40
2023-01-23T05:51:23.498Z,7.78
2023-01-23T05:54:25.287Z,7.37
2023-01-23T05:57:27.234Z,7.50
2023-01-23T06:00:29.177Z,7.20
2023-01-23T06:03:30.980Z,7.22
2023-01-23T06:06:32.654Z,7.47
2023-01-23T06:09:34.318Z,7.32
2023-01-23T06:12:36.006Z,7.65
2023-01-23T06:15:37.919Z,7.03
2023-01-23T06:18:39.595Z,7.03
2023-01-23T06:21:41.389Z,6.78
2023-01-23T06:24:43.032Z,8.23
2023-01-23T06:27:44.717Z,6.78
2023-01-23T06:30:46.477Z,6.68
2023-01-23T06:33:52.242Z,6.87
2023-01-23T06:36:53.890Z,7.00
2023-01-23T06:39:55.511Z,6.12
2023-01-23T06:42:57.248Z,6.05
2023-01-23T06:45:59.013Z,7.32
2023-01-23T06:49:00.848Z,5.97
2023-01-23T06:52:02.500Z,6.20
2023-01-23T06:55:04.823Z,6.53
2023-01-23T06:58:07.303Z,7.00
2023-01-23T07:01:16.093Z,6.43
2023-01-23T07:04:17.895Z,6.30
2023-01-23T07:07:19.882Z,7.50
2023-01-23T07:10:23.153Z,8.63
2023-01-23T07:13:24.853Z,10.38
2023-01-23T07:16:26.537Z,7.28
2023-01-23T07:19:28.276Z,6.30
2023-01-23T07:22:29.911Z,6.37
2023-01-23T07:25:31.675Z,6.53
2023-01-23T07:28:33.347Z,6.60
2023-01-23T07:31:36.075Z,7.85
2023-01-23T07:34:37.744Z,6.12
2023-01-23T07:37:39.370Z,6.57
2023-01-23T07:40:42.987Z,7.28
2023-01-23T07:43:44.677Z,6.32
2023-01-23T07:46:47.582Z,6.35
2023-01-23T07:49:49.215Z,5.90
2023-01-23T07:52:50.852Z,5.80
2023-01-23T07:55:52.508Z,6.28
2023-01-23T07:58:57.266Z,5.78
2023-01-23T08:01:59.085Z,5.43
2023-01-23T08:05:00.822Z,5.75
2023-01-23T08:08:13.597Z,6.22
2023-01-23T08:11:16.058Z,6.72
2023-01-23T08:14:17.733Z,7.28
2023-01-23T08:17:19.472Z,5.80
2023-01-23T08:20:23.097Z,5.68
2023-01-23T08:23:26.738Z,6.90
2023-01-23T08:26:28.426Z,6.35
2023-01-23T08:29:31.454Z,6.25
2023-01-23T08:32:35.585Z,5.70
2023-01-23T08:35:37.821Z,5.62
2023-01-23T08:38:39.808Z,5.50
2023-01-23T08:41:41.466Z,5.37
2023-01-23T08:44:43.120Z,5.80
2023-01-23T08:47:44.771Z,5.68
2023-01-23T08:50:46.952Z,5.60
2023-01-23T08:53:52.628Z,6.30
2023-01-23T08:56:54.326Z,7.20
2023-01-23T08:59:56.285Z,7.60
2023-01-23T09:03:04.573Z,8.23
2023-01-23T09:06:06.777Z,6.07
2023-01-23T09:09:08.450Z,6.95
2023-01-23T09:12:10.100Z,7.30
2023-01-23T09:15:11.846Z,9.60
2023-01-23T09:18:13.539Z,6.43
2023-01-23T09:21:17.030Z,6.85
2023-01-23T09:24:18.691Z,10.82
2023-01-23T09:27:21.150Z,6.10
2023-01-23T09:30:23.127Z,6.60
2023-01-23T09:33:27.228Z,5.75
2023-01-23T09:36:42.110Z,9.93
2023-01-23T09:39:44.980Z,7.93
2023-01-23T09:42:46.893Z,8.45
2023-01-23T09:46:05.680Z,8.00
2023-01-23T09:49:25.402Z,6.70
2023-01-23T09:52:34.690Z,6.95
2023-01-23T09:55:36.277Z,5.32
2023-01-23T09:58:47.575Z,6.70
2023-01-23T10:01:49.260Z,5.37
2023-01-23T10:04:53.187Z,5.20
2023-01-23T10:08:27.843Z,9.50
2023-01-23T10:11:37.446Z,9.25
2023-01-23T10:14:57.297Z,4.68
2023-01-23T10:18:23.749Z,9.50
2023-01-23T10:21:45.925Z,26.40
2023-01-23T10:24:53.851Z,9.20
2023-01-23T10:28:00.667Z,15.60
2023-01-23T10:31:08.572Z,18.62
2023-01-23T10:34:10.173Z,9.20
2023-01-23T10:37:31.611Z,14.82
2023-01-23T10:40:51.923Z,18.60
2023-01-23T10:43:55.856Z,11.43
2023-01-23T10:47:01.971Z,21.15
2023-01-23T10:50:05.635Z,15.73
2023-01-23T10:53:18.080Z,11.43
2023-01-23T10:56:20.511Z,12.32
2023-01-23T10:59:55.090Z,6.47
2023-01-23T11:02:57.009Z,6.37
2023-01-23T11:06:07.727Z,14.13
2023-01-23T11:09:20.105Z,6.65
2023-01-23T11:12:26.131Z,7.30
2023-01-23T11:15:28.963Z,9.90
2023-01-23T11:18:30.549Z,7.20
2023-01-23T11:21:37.256Z,9.20
2023-01-23T11:24:41.578Z,5.80
2023-01-23T11:27:58.133Z,7.75
2023-01-23T11:31:21.483Z,6.93
2023-01-23T11:34:29.331Z,10.85
2023-01-23T11:37:36.833Z,6.40
2023-01-23T11:43:41.504Z,7.22
2023-01-23T11:47:04.509Z,6.93
2023-01-23T11:50:49.934Z,8.52
2023-01-23T11:54:20.998Z,8.90
2023-01-23T11:57:50.832Z,6.72
2023-01-23T12:01:05.190Z,7.97
2023-01-23T12:04:32.128Z,5.50
2023-01-23T12:07:48.028Z,7.75
2023-01-23T12:11:16.540Z,7.50
2023-01-23T12:17:42.845Z,8.05
2023-01-23T12:20:53.559Z,7.07
2023-01-23T12:24:06.707Z,6.65
2023-01-23T12:27:16.973Z,6.12
2023-01-23T12:30:39.030Z,6.18
2023-01-23T12:34:06.697Z,6.57
2023-01-23T12:37:37.112Z,6.33
2023-01-23T12:40:46.748Z,6.47
2023-01-23T12:43:57.280Z,6.90
2023-01-23T12:47:11.078Z,6.70
2023-01-23T12:50:38.227Z,5.93
2023-01-23T12:53:43.153Z,8.02
2023-01-23T12:56:45.172Z,6.35
2023-01-23T13:00:01.644Z,6.55
2023-01-23T13:03:37.560Z,6.07
2023-01-23T13:07:37.762Z,6.28
2023-01-23T13:11:22.172Z,5.57
2023-01-23T13:14:43.502Z,6.55
2023-01-23T13:17:56.908Z,6.93
2023-01-23T13:21:18.586Z,5.93
2023-01-23T13:25:04.686Z,6.65
2023-01-23T13:28:44.547Z,6.18
2023-01-23T13:31:50.359Z,5.72
2023-01-23T13:34:52.349Z,6.10
2023-01-23T13:37:54.153Z,7.12
2023-01-23T13:41:04.638Z,5.55
2023-01-23T13:44:35.727Z,5.65
2023-01-23T14:22:17.658Z,5.05
2023-01-23T14:25:19.744Z,5.55
2023-01-23T14:28:21.490Z,7.47
2023-01-23T14:31:29.439Z,7.72
2023-01-23T14:34:39.679Z,6.82
2023-01-23T14:37:41.643Z,10.00
2023-01-23T14:40:50.619Z,13.88
2023-01-23T14:43:55.577Z,8.00
2023-01-23T14:47:00.102Z,7.97
2023-01-23T14:50:02.861Z,9.55
2023-01-23T14:53:13.576Z,6.75
2023-01-23T14:56:15.486Z,10.63
2023-01-23T14:59:28.023Z,26.73
2023-01-23T15:02:31.285Z,24.55
2023-01-23T15:05:33.628Z,11.98
2023-01-23T15:08:36.754Z,9.05
2023-01-23T15:11:38.456Z,8.75
2023-01-23T15:14:40.546Z,6.53
2023-01-23T15:17:46.072Z,7.03
2023-01-23T15:20:59.548Z,5.93
2023-01-23T15:24:06.342Z,5.97
2023-01-23T15:27:30.910Z,5.53
2023-01-23T15:30:35.634Z,4.62
2023-01-23T15:33:41.282Z,4.47
2023-01-23T15:36:50.467Z,3.65
2023-01-23T15:40:01.905Z,4.78
2023-01-23T15:43:21.756Z,4.32
2023-01-23T15:46:23.390Z,4.60
2023-01-23T15:49:26.527Z,4.50
2023-01-23T15:52:50.052Z,4.10
2023-01-23T15:55:51.751Z,6.57
2023-01-23T15:58:53.774Z,6.85
2023-01-23T16:01:55.694Z,7.57
2023-01-23T16:04:57.379Z,7.60
2023-01-23T16:08:03.406Z,7.40
2023-01-23T16:11:05.122Z,5.72
2023-01-23T16:14:11.336Z,4.87
2023-01-23T16:17:17.012Z,5.20
2023-01-23T16:20:23.054Z,6.20
2023-01-23T16:23:24.932Z,4.90
2023-01-23T16:26:27.937Z,5.50
2023-01-23T16:29:34.763Z,27.37
2023-01-23T16:32:36.985Z,8.55
2023-01-23T16:35:39.094Z,4.97
2023-01-23T16:38:43.291Z,5.00
2023-01-23T16:41:46.752Z,5.35
2023-01-23T16:44:49.245Z,5.20
2023-01-23T16:47:51.868Z,5.37
2023-01-23T16:51:02.096Z,5.28
2023-01-23T16:54:17.623Z,4.75
2023-01-23T16:57:21.541Z,5.10
2023-01-23T17:00:34.437Z,5.72
2023-01-23T17:03:40.821Z,5.18
2023-01-23T17:06:43.450Z,5.30
2023-01-23T17:09:47.392Z,5.62
2023-01-23T17:12:51.993Z,5.32
2023-01-23T17:15:56.698Z,4.75
2023-01-23T17:19:01.172Z,5.85
2023-01-23T17:22:05.787Z,15.80
2023-01-23T17:25:16.813Z,9.90
2023-01-23T17:28:20.435Z,5.95
2023-01-23T17:31:29.279Z,10.65
2023-01-23T17:34:48.930Z,7.12
2023-01-23T17:37:52.200Z,5.57
2023-01-23T17:40:54.241Z,7.10
2023-01-23T17:43:56.272Z,5.82
2023-01-23T17:46:58.800Z,7.12
2023-01-23T17:50:03.582Z,7.80
2023-01-23T17:53:06.106Z,6.85
2023-01-23T17:56:08.091Z,7.95
2023-01-23T17:59:10.351Z,5.90
2023-01-23T18:02:40.919Z,7.05
2023-01-23T18:05:42.871Z,7.40
2023-01-23T18:08:45.474Z,10.68
2023-01-23T18:11:54.899Z,13.73
2023-01-23T18:15:31.777Z,11.77
2023-01-23T18:18:37.644Z,10.55
2023-01-23T18:21:41.987Z,8.32
2023-01-23T18:24:44.897Z,7.30
2023-01-23T18:27:52.299Z,6.78
2023-01-23T18:31:09.719Z,7.07
2023-01-23T18:34:19.988Z,6.25
2023-01-23T18:37:46.278Z,6.95
2023-01-23T18:41:13.851Z,5.70
2023-01-23T18:44:27.178Z,6.95
2023-01-23T18:47:30.270Z,6.57
2023-01-23T18:50:34.289Z,7.10
2023-01-23T18:54:13.568Z,6.85
2023-01-23T18:57:25.341Z,5.57
2023-01-23T19:00:45.281Z,5.85
2023-01-23T19:03:49.656Z,6.25
2023-01-23T19:06:54.550Z,7.62
2023-01-23T19:09:58.188Z,5.90
2023-01-23T19:13:21.371Z,6.35
2023-01-23T19:16:36.384Z,6.40
2023-01-23T19:20:05.457Z,5.82
2023-01-23T19:23:27.052Z,6.80
2023-01-23T19:26:32.848Z,6.62
2023-01-23T19:29:36.784Z,6.95
2023-01-23T19:32:42.608Z,8.52
2023-01-23T19:35:48.914Z,9.07
2023-01-23T19:39:01.956Z,8.68
2023-01-23T19:42:05.961Z,7.68
2023-01-23T19:45:20.807Z,8.20
2023-01-23T19:48:23.894Z,8.25
2023-01-23T19:51:27.217Z,7.95
2023-01-23T19:54:29.658Z,9.90
2023-01-23T19:57:34.305Z,10.27
2023-01-23T20:00:38.533Z,11.18
2023-01-23T20:03:41.636Z,9.02
2023-01-23T20:06:46.981Z,9.20
2023-01-23T20:09:49.391Z,8.52
2023-01-23T20:12:52.782Z,7.32
2023-01-23T20:15:55.518Z,8.32
2023-01-23T20:18:59.287Z,7.12
2023-01-23T20:22:01.863Z,6.82
2023-01-23T20:25:10.315Z,7.37
2023-01-23T20:28:13.514Z,7.70
2023-01-23T20:31:16.215Z,8.05
2023-01-23T20:34:18.914Z,8.00
2023-01-23T20:37:22.605Z,6.90
2023-01-23T20:40:25.309Z,8.02
2023-01-23T20:43:27.867Z,7.90
2023-01-23T20:46:32.496Z,7.82
2023-01-23T20:49:35.145Z,7.93
2023-01-23T20:52:56.654Z,7.97
2023-01-23T20:56:05.552Z,9.82
2023-01-23T20:59:19.360Z,7.95
2023-01-23T21:02:25.323Z,7.97
2023-01-23T21:05:32.757Z,8.02
2023-01-23T21:08:36.764Z,7.75
2023-01-23T21:11:39.424Z,8.27
2023-01-23T21:14:42.062Z,7.62
2023-01-23T21:17:44.097Z,10.73
2023-01-23T21:20:46.115Z,11.23
2023-01-23T21:23:49.409Z,14.95
2023-01-23T21:26:51.789Z,14.77
2023-01-23T21:29:53.693Z,14.02
2023-01-23T21:32:55.668Z,12.32
2023-01-23T21:35:58.704Z,8.40
2023-01-23T21:39:00.730Z,9.25
2023-01-23T21:42:02.538Z,13.52
2023-01-23T21:45:04.554Z,9.52
2023-01-23T21:48:06.322Z,7.60
2023-01-23T21:51:15.735Z,8.35
2023-01-23T21:54:17.412Z,8.07
2023-01-23T21:57:19.040Z,7.87
2023-01-23T22:00:39.461Z,7.75
2023-01-23T22:03:41.079Z,7.53
2023-01-23T22:06:44.137Z,8.80
2023-01-23T22:09:45.802Z,7.10
2023-01-23T22:12:47.550Z,7.60
2023-01-23T22:15:49.219Z,6.80
2023-01-23T22:18:50.984Z,10.00
2023-01-23T22:21:55.894Z,7.80
2023-01-23T22:24:57.527Z,7.15
2023-01-23T22:27:59.155Z,8.30
2023-01-23T22:31:11.085Z,8.13
2023-01-23T22:34:12.795Z,8.32
2023-01-23T22:37:14.492Z,9.00
2023-01-23T22:40:16.469Z,8.43
2023-01-23T22:43:18.111Z,8.10
2023-01-23T22:46:19.769Z,9.25
2023-01-23T22:49:21.599Z,8.80
2023-01-23T22:52:23.217Z,8.10
2023-01-23T22:55:24.917Z,8.60
2023-01-23T22:58:26.902Z,8.75
2023-01-23T23:01:28.950Z,9.13
2023-01-23T23:04:30.777Z,8.55
2023-01-23T23:07:33.346Z,8.77
2023-01-23T23:10:34.953Z,8.85
2023-01-23T23:13:38.683Z,8.35
2023-01-23T23:16:41.043Z,7.57
2023-01-23T23:19:42.701Z,7.50
2023-01-23T23:22:45.008Z,7.80
2023-01-23T23:25:46.751Z,8.05
2023-01-23T23:28:48.428Z,8.80
2023-01-23T23:31:52.881Z,8.00
2023-01-23T23:34:54.601Z,8.35
2023-01-23T23:37:56.242Z,9.13
2023-01-23T23:41:03.553Z,8.18
2023-01-23T23:44:05.439Z,8.43
2023-01-23T23:47:07.087Z,8.48
2023-01-23T23:50:09.552Z,9.38
2023-01-23T23:53:11.248Z,7.82
2023-01-23T23:56:20.274Z,8.05
2023-01-23T23:59:21.883Z,7.78
